createdAt,value
2023-04-13T00:00:56.053Z,37.03
2023-04-13T00:03:24.319Z,49.93
2023-04-13T00:05:53.790Z,26.47
2023-04-13T00:08:23.456Z,35.53
2023-04-13T00:10:51.807Z,27.53
2023-04-13T00:13:19.797Z,43.07
2023-04-13T00:15:47.803Z,25.77
2023-04-13T00:18:17.193Z,22.83
2023-04-13T00:20:46.626Z,44.77
2023-04-13T00:23:14.633Z,57.13
2023-04-13T00:25:42.745Z,39.00
2023-04-13T00:28:11.918Z,29.47
2023-04-13T00:30:39.969Z,20.27
2023-04-13T00:33:07.977Z,17.77
2023-04-13T00:35:37.443Z,70.83
2023-04-13T00:38:05.446Z,28.43
2023-04-13T00:40:33.586Z,29.23
2023-04-13T00:43:02.305Z,14.53
2023-04-13T00:45:31.092Z,36.57
2023-04-13T00:48:00.121Z,32.63
2023-04-13T00:50:28.476Z,24.57
2023-04-13T00:52:58.241Z,23.17
2023-04-13T00:55:27.786Z,26.30
2023-04-13T00:57:56.128Z,42.97
2023-04-13T01:00:25.673Z,32.63
2023-04-13T01:02:54.776Z,31.33
2023-04-13T01:05:25.683Z,56.63
2023-04-13T01:08:09.272Z,22.37
2023-04-13T01:10:44.273Z,41.73
2023-04-13T01:13:20.532Z,41.23
2023-04-13T01:16:02.487Z,76.70
2023-04-13T01:18:31.498Z,47.30
2023-04-13T01:21:00.196Z,68.13
2023-04-13T01:23:37.299Z,80.73
2023-04-13T01:26:08.681Z,46.57
2023-04-13T01:28:39.700Z,115.57
2023-04-13T01:31:11.998Z,55.73
2023-04-13T01:33:41.656Z,119.43
2023-04-13T01:36:12.562Z,94.07
2023-04-13T01:38:40.886Z,186.00
2023-04-13T01:41:09.682Z,96.77
2023-04-13T01:43:39.165Z,76.23
2023-04-13T01:46:14.013Z,23.53
2023-04-13T01:48:48.195Z,74.27
2023-04-13T01:51:19.375Z,47.27
2023-04-13T01:53:53.555Z,66.33
2023-04-13T01:56:23.145Z,40.27
2023-04-13T01:58:58.071Z,91.53
2023-04-13T02:01:26.903Z,266.23
2023-04-13T02:03:55.003Z,54.07
2023-04-13T02:06:23.670Z,79.63
2023-04-13T02:08:52.599Z,48.50
2023-04-13T02:11:21.489Z,60.83
2023-04-13T02:13:49.614Z,137.10
2023-04-13T02:16:19.285Z,93.90
2023-04-13T02:18:48.258Z,40.53
2023-04-13T02:21:16.984Z,411.23
2023-04-13T02:23:45.368Z,139.27
2023-04-13T02:26:16.294Z,236.63
2023-04-13T02:28:45.499Z,104.70
2023-04-13T02:31:16.681Z,103.63
2023-04-13T02:33:46.558Z,98.40
2023-04-13T02:36:17.344Z,134.70
2023-04-13T02:38:45.556Z,192.60
2023-04-13T02:41:13.554Z,308.30
2023-04-13T02:43:41.741Z,195.67
2023-04-13T02:46:09.941Z,112.67
2023-04-13T02:48:38.076Z,335.00
2023-04-13T02:51:08.126Z,348.63
2023-04-13T02:53:36.425Z,366.43
2023-04-13T02:56:05.659Z,146.63
2023-04-13T02:58:33.621Z,128.20
2023-04-13T03:01:01.782Z,103.93
2023-04-13T03:03:30.480Z,228.57
2023-04-13T03:05:58.788Z,334.90
2023-04-13T03:08:28.478Z,454.43
2023-04-13T03:10:56.809Z,126.90
2023-04-13T03:13:24.787Z,56.23
2023-04-13T03:15:52.873Z,113.67
2023-04-13T03:18:20.827Z,128.40
2023-04-13T03:20:48.930Z,97.77
2023-04-13T03:23:17.406Z,229.57
2023-04-13T03:25:46.737Z,296.70
2023-04-13T03:28:14.732Z,392.10
2023-04-13T03:30:42.742Z,69.80
2023-04-13T03:33:10.915Z,90.63
2023-04-13T03:35:38.932Z,128.57
2023-04-13T03:38:07.113Z,123.17
2023-04-13T03:40:35.104Z,223.37
2023-04-13T03:43:04.694Z,125.30
2023-04-13T03:45:33.127Z,143.63
2023-04-13T03:48:01.337Z,61.13
2023-04-13T03:50:29.747Z,57.53
2023-04-13T03:52:57.731Z,114.43
2023-04-13T03:55:26.024Z,208.43
2023-04-13T03:57:55.464Z,50.57
2023-04-13T04:00:24.871Z,130.87
2023-04-13T04:02:53.164Z,284.13
2023-04-13T04:05:21.315Z,76.70
2023-04-13T04:07:49.408Z,358.47
2023-04-13T04:10:19.364Z,230.83
2023-04-13T04:12:47.336Z,180.33
2023-04-13T04:15:15.298Z,84.17
2023-04-13T04:17:44.698Z,148.90
2023-04-13T04:20:13.613Z,251.90
2023-04-13T04:22:41.879Z,301.67
2023-04-13T04:25:10.425Z,368.80
2023-04-13T04:27:38.901Z,617.00
2023-04-13T04:30:10.848Z,56.13
2023-04-13T04:32:40.693Z,70.10
2023-04-13T04:35:14.300Z,129.47
2023-04-13T04:37:42.384Z,252.87
2023-04-13T04:40:11.096Z,189.60
2023-04-13T04:42:39.163Z,85.67
2023-04-13T04:45:08.129Z,152.53
2023-04-13T04:47:41.955Z,217.03
2023-04-13T04:50:12.542Z,322.33
2023-04-13T04:52:40.830Z,323.90
2023-04-13T04:55:09.532Z,54.13
2023-04-13T04:57:37.744Z,283.80
2023-04-13T05:00:10.674Z,73.33
2023-04-13T05:02:38.795Z,386.83
2023-04-13T05:05:07.489Z,219.30
2023-04-13T05:07:38.148Z,276.83
2023-04-13T05:10:07.360Z,71.20
2023-04-13T05:12:37.208Z,253.73
2023-04-13T05:15:06.683Z,260.33
2023-04-13T05:17:34.825Z,324.53
2023-04-13T05:20:03.539Z,198.77
2023-04-13T05:22:31.521Z,255.67
2023-04-13T05:25:01.095Z,228.33
2023-04-13T05:27:29.098Z,125.17
2023-04-13T05:29:58.265Z,214.33
2023-04-13T05:32:26.350Z,239.13
2023-04-13T05:34:54.418Z,278.17
2023-04-13T05:37:22.413Z,205.73
2023-04-13T05:39:50.633Z,454.77
2023-04-13T05:42:20.307Z,251.33
2023-04-13T05:44:48.313Z,490.00
2023-04-13T05:47:16.835Z,249.87
2023-04-13T05:49:44.821Z,183.53
2023-04-13T05:52:12.879Z,233.13
2023-04-13T05:54:40.990Z,384.67
2023-04-13T05:57:08.988Z,599.10
2023-04-13T05:59:38.561Z,371.37
2023-04-13T06:02:07.204Z,446.83
2023-04-13T06:04:36.333Z,275.60
2023-04-13T06:07:04.577Z,144.87
2023-04-13T06:09:33.111Z,302.17
2023-04-13T06:12:01.136Z,504.10
2023-04-13T06:14:29.157Z,308.83
2023-04-13T06:16:58.543Z,368.53
2023-04-13T06:19:28.901Z,174.07
2023-04-13T06:21:57.131Z,341.33
2023-04-13T06:24:25.186Z,407.67
2023-04-13T06:26:53.204Z,394.10
2023-04-13T06:29:21.311Z,578.77
2023-04-13T06:31:49.305Z,316.77
2023-04-13T06:34:19.102Z,570.23
2023-04-13T06:36:47.134Z,381.80
2023-04-13T06:39:15.787Z,366.73
2023-04-13T06:41:43.766Z,436.20
2023-04-13T06:44:12.184Z,290.10
2023-04-13T06:46:40.198Z,323.53
2023-04-13T06:49:09.208Z,145.47
2023-04-13T06:51:38.605Z,363.83
2023-04-13T06:54:06.796Z,720.00
2023-04-13T06:56:35.168Z,349.23
2023-04-13T06:59:03.407Z,396.60
2023-04-13T07:01:31.565Z,506.63
2023-04-13T07:03:59.878Z,463.97
2023-04-13T07:06:28.967Z,293.17
2023-04-13T07:08:58.479Z,430.43
2023-04-13T07:11:27.228Z,212.70
2023-04-13T07:13:55.341Z,174.00
2023-04-13T07:16:23.361Z,114.10
2023-04-13T07:18:51.361Z,314.90
2023-04-13T07:21:19.308Z,244.07
2023-04-13T07:23:47.292Z,279.13
2023-04-13T07:26:17.833Z,91.43
2023-04-13T07:28:46.019Z,149.73
2023-04-13T07:31:14.007Z,237.70
2023-04-13T07:33:41.996Z,208.33
2023-04-13T07:36:10.527Z,253.33
2023-04-13T07:38:38.510Z,366.07
2023-04-13T07:41:07.398Z,490.60
2023-04-13T07:43:37.353Z,366.37
2023-04-13T07:46:11.730Z,500.43
2023-04-13T07:48:39.834Z,331.30
2023-04-13T07:51:08.632Z,379.20
2023-04-13T07:53:36.999Z,590.10
2023-04-13T07:56:05.211Z,476.23
2023-04-13T07:58:38.029Z,245.87
2023-04-13T08:01:07.328Z,560.37
2023-04-13T08:03:36.727Z,219.30
2023-04-13T08:06:07.938Z,299.17
2023-04-13T08:08:35.917Z,377.07
2023-04-13T08:11:04.250Z,339.20
2023-04-13T08:13:32.677Z,477.03
2023-04-13T08:16:02.364Z,400.27
2023-04-13T08:18:32.332Z,171.43
2023-04-13T08:21:00.417Z,394.00
2023-04-13T08:23:28.498Z,81.60
2023-04-13T08:25:56.573Z,187.37
2023-04-13T08:28:24.560Z,257.73
2023-04-13T08:30:52.503Z,403.57
2023-04-13T08:33:22.039Z,205.93
2023-04-13T08:35:50.733Z,234.83
2023-04-13T08:38:19.931Z,76.30
2023-04-13T08:40:50.160Z,510.30
2023-04-13T08:43:21.107Z,156.83
2023-04-13T08:45:49.764Z,545.50
2023-04-13T08:48:19.468Z,90.83
2023-04-13T08:50:49.702Z,171.47
2023-04-13T08:53:18.329Z,249.47
2023-04-13T08:55:47.644Z,95.20
2023-04-13T08:58:20.826Z,191.63
2023-04-13T09:00:51.044Z,200.50
2023-04-13T09:03:27.605Z,522.33
2023-04-13T09:06:00.213Z,589.10
2023-04-13T09:08:29.435Z,597.90
2023-04-13T09:10:58.297Z,407.03
2023-04-13T09:13:29.352Z,518.70
2023-04-13T09:15:57.414Z,183.07
2023-04-13T09:18:25.696Z,322.30
2023-04-13T09:20:59.069Z,670.27
2023-04-13T09:23:27.512Z,518.87
2023-04-13T09:26:06.164Z,402.50
2023-04-13T09:28:34.210Z,385.57
2023-04-13T09:31:06.473Z,217.80
2023-04-13T09:33:45.100Z,511.60
2023-04-13T09:36:16.745Z,278.43
2023-04-13T09:38:46.751Z,382.00
2023-04-13T09:41:14.724Z,372.33
2023-04-13T09:43:42.757Z,307.90
2023-04-13T09:46:14.834Z,634.27
2023-04-13T09:48:43.258Z,281.17
2023-04-13T09:51:11.328Z,875.60
2023-04-13T09:53:45.768Z,675.27
2023-04-13T09:56:13.936Z,572.87
2023-04-13T09:58:45.797Z,540.40
2023-04-13T10:01:15.211Z,450.33
2023-04-13T10:03:44.601Z,229.93
2023-04-13T10:06:13.324Z,532.20
2023-04-13T10:08:43.069Z,419.83
2023-04-13T10:11:14.520Z,616.00
2023-04-13T10:13:51.978Z,228.23
2023-04-13T10:16:36.701Z,169.20
2023-04-13T10:19:11.046Z,353.13
2023-04-13T10:21:40.948Z,125.80
2023-04-13T10:24:13.111Z,139.10
2023-04-13T10:26:43.931Z,61.47
2023-04-13T10:29:14.459Z,337.23
2023-04-13T10:31:46.862Z,316.90
2023-04-13T10:34:25.755Z,156.10
2023-04-13T10:36:56.199Z,444.83
2023-04-13T10:39:30.306Z,341.20
2023-04-13T10:42:02.815Z,227.37
2023-04-13T10:44:42.410Z,345.57
2023-04-13T10:47:11.288Z,340.47
2023-04-13T10:49:40.747Z,212.10
2023-04-13T10:52:10.214Z,240.83
2023-04-13T10:54:40.791Z,241.07
2023-04-13T10:57:10.633Z,237.93
2023-04-13T10:59:56.054Z,140.93
2023-04-13T11:02:27.311Z,430.47
2023-04-13T11:04:55.624Z,283.67
2023-04-13T11:07:26.247Z,369.37
2023-04-13T11:10:02.993Z,195.70
2023-04-13T11:12:31.724Z,281.37
2023-04-13T11:15:00.498Z,385.33
2023-04-13T11:17:28.755Z,241.83
2023-04-13T11:19:58.174Z,228.17
2023-04-13T11:22:28.774Z,249.37
2023-04-13T11:25:09.546Z,488.17
2023-04-13T11:27:38.166Z,401.03
2023-04-13T11:30:09.423Z,545.40
2023-04-13T11:32:41.603Z,705.27
2023-04-13T11:35:10.813Z,459.17
2023-04-13T11:37:40.597Z,654.90
2023-04-13T11:40:14.835Z,430.07
2023-04-13T11:42:44.577Z,290.30
2023-04-13T11:45:14.730Z,215.00
2023-04-13T11:47:42.877Z,204.13
2023-04-13T11:50:12.018Z,150.83
2023-04-13T11:52:41.902Z,418.70
2023-04-13T11:55:22.350Z,406.30
2023-04-13T11:57:52.378Z,445.43
2023-04-13T12:00:24.473Z,335.80
2023-04-13T12:03:01.714Z,476.70
2023-04-13T12:05:34.289Z,499.43
2023-04-13T12:08:04.899Z,286.67
2023-04-13T12:10:41.298Z,272.67
2023-04-13T12:16:05.133Z,827.47
2023-04-13T12:18:43.691Z,390.37
2023-04-13T12:21:16.408Z,599.20
2023-04-13T12:23:54.171Z,651.70
2023-04-13T12:27:10.214Z,589.63
2023-04-13T12:29:13.821Z,969.60
2023-04-13T12:31:44.278Z,911.33
2023-04-13T12:34:12.503Z,602.07
2023-04-13T12:36:41.200Z,996.73
2023-04-13T12:39:09.189Z,854.90
2023-04-13T12:41:38.507Z,937.20
2023-04-13T12:44:06.968Z,689.73
2023-04-13T12:46:34.977Z,789.80
2023-04-13T12:49:03.325Z,676.80
2023-04-13T12:51:31.506Z,767.07
2023-04-13T12:53:59.513Z,923.27
2023-04-13T12:56:27.522Z,571.17
2023-04-13T12:58:57.033Z,646.73
2023-04-13T13:01:25.255Z,648.17
2023-04-13T13:03:53.421Z,911.40
2023-04-13T13:06:21.550Z,997.53
2023-04-13T13:08:50.060Z,686.00
2023-04-13T13:11:18.130Z,319.00
2023-04-13T13:13:46.087Z,256.27
2023-04-13T13:16:15.438Z,386.87
2023-04-13T13:18:50.467Z,389.13
2023-04-13T13:21:20.034Z,758.50
2023-04-13T13:23:48.103Z,560.27
2023-04-13T13:28:47.229Z,444.47
2023-04-13T13:31:16.567Z,537.37
2023-04-13T13:33:44.778Z,547.80
2023-04-13T13:36:13.932Z,916.13
2023-04-13T13:38:42.898Z,842.57
2023-04-13T13:41:11.437Z,594.87
2023-04-13T13:43:39.639Z,620.37
2023-04-13T13:46:07.826Z,437.57
2023-04-13T13:48:37.234Z,630.60
2023-04-13T13:51:07.497Z,483.83
2023-04-13T13:53:35.954Z,789.47
2023-04-13T13:56:04.768Z,325.50
2023-04-13T13:58:33.026Z,324.53
2023-04-13T14:01:01.083Z,908.23
2023-04-13T14:03:29.231Z,469.73
2023-04-13T14:05:58.692Z,374.87
2023-04-13T14:08:26.717Z,532.33
2023-04-13T14:10:54.763Z,836.87
2023-04-13T14:13:23.258Z,798.20
2023-04-13T14:15:51.283Z,898.53
2023-04-13T14:18:19.552Z,845.60
2023-04-13T14:20:47.557Z,999.90
2023-04-13T14:23:17.149Z,654.77
2023-04-13T14:25:45.202Z,999.90
2023-04-13T14:28:13.935Z,841.40
2023-04-13T14:30:42.132Z,562.57
2023-04-13T14:33:10.354Z,881.55
2023-04-13T14:35:39.778Z,827.67
2023-04-13T14:38:08.203Z,843.50
2023-04-13T14:40:37.651Z,783.67
2023-04-13T14:43:05.626Z,817.75
2023-04-13T14:45:33.672Z,999.90
2023-04-13T14:48:01.749Z,936.53
2023-04-13T14:50:30.028Z,999.90
2023-04-13T14:52:58.484Z,826.30
2023-04-13T14:55:26.496Z,895.37
2023-04-13T14:57:58.274Z,730.37
2023-04-13T15:00:38.881Z,733.73
2023-04-13T15:03:08.229Z,523.97
2023-04-13T15:05:38.925Z,761.60
2023-04-13T15:08:08.236Z,859.07
2023-04-13T15:10:36.315Z,686.60
2023-04-13T15:13:07.177Z,696.53
2023-04-13T15:15:36.894Z,517.73
2023-04-13T15:18:05.989Z,696.90
2023-04-13T15:20:34.220Z,611.37
2023-04-13T15:23:02.246Z,597.83
2023-04-13T15:25:30.279Z,628.10
2023-04-13T15:27:59.471Z,728.73
2023-04-13T15:30:31.496Z,420.70
2023-04-13T15:33:02.302Z,422.77
2023-04-13T15:35:31.095Z,415.80
2023-04-13T15:38:02.125Z,568.93
2023-04-13T15:40:32.850Z,480.30
2023-04-13T15:43:01.291Z,544.57
2023-04-13T15:45:30.657Z,328.17
2023-04-13T15:47:59.231Z,348.73
2023-04-13T15:50:28.126Z,325.73
2023-04-13T15:52:57.206Z,671.47
2023-04-13T15:55:25.549Z,317.03
2023-04-13T15:57:53.892Z,137.50
2023-04-13T16:00:22.405Z,521.33
2023-04-13T16:02:51.883Z,487.70
2023-04-13T16:05:20.092Z,131.33
2023-04-13T16:07:48.252Z,522.50
2023-04-13T16:10:16.977Z,731.63
2023-04-13T16:12:45.496Z,503.50
2023-04-13T16:15:13.981Z,549.37
2023-04-13T16:17:44.009Z,417.10
2023-04-13T16:20:21.355Z,502.90
2023-04-13T16:22:53.109Z,137.20
2023-04-13T16:25:21.596Z,439.87
2023-04-13T16:27:50.109Z,298.73
2023-04-13T16:30:21.049Z,641.53
2023-04-13T16:32:50.820Z,388.43
2023-04-13T16:35:20.815Z,167.70
2023-04-13T16:37:48.771Z,350.27
2023-04-13T16:40:17.166Z,456.43
2023-04-13T16:42:46.088Z,432.27
2023-04-13T16:45:15.157Z,716.53
2023-04-13T16:47:43.617Z,599.90
2023-04-13T16:50:13.343Z,165.03
2023-04-13T16:52:42.827Z,461.73
2023-04-13T16:55:14.143Z,517.10
2023-04-13T16:57:42.887Z,56.40
2023-04-13T17:00:12.161Z,113.53
2023-04-13T17:02:41.829Z,250.67
2023-04-13T17:05:11.637Z,216.53
2023-04-13T17:07:40.882Z,211.33
2023-04-13T17:10:12.606Z,572.40
2023-04-13T17:12:40.848Z,473.57
2023-04-13T17:15:10.504Z,294.63
2023-04-13T17:17:38.894Z,657.03
2023-04-13T17:20:08.444Z,241.10
2023-04-13T17:22:36.480Z,370.23
2023-04-13T17:25:04.873Z,309.83
2023-04-13T17:27:34.187Z,95.63
2023-04-13T17:30:03.198Z,222.43
2023-04-13T17:32:32.476Z,33.90
2023-04-13T17:35:02.056Z,165.73
2023-04-13T17:37:30.437Z,329.97
2023-04-13T17:39:58.427Z,311.40
2023-04-13T17:42:26.617Z,247.37
2023-04-13T17:44:56.223Z,202.10
2023-04-13T17:47:25.513Z,224.33
2023-04-13T17:49:53.635Z,340.90
2023-04-13T17:52:21.642Z,244.37
2023-04-13T17:54:49.631Z,83.73
2023-04-13T17:57:17.610Z,66.83
2023-04-13T17:59:46.710Z,228.63
2023-04-13T18:02:16.129Z,238.03
2023-04-13T18:04:44.155Z,261.57
2023-04-13T18:07:12.128Z,269.27
2023-04-13T18:09:40.233Z,224.37
2023-04-13T18:12:08.514Z,174.00
2023-04-13T18:14:36.540Z,130.63
2023-04-13T18:17:04.792Z,322.70
2023-04-13T18:19:35.031Z,141.63
2023-04-13T18:23:03.500Z,75.30
2023-04-13T18:25:42.727Z,61.23
2023-04-13T18:28:48.320Z,227.20
2023-04-13T18:31:41.957Z,51.23
2023-04-13T18:37:39.030Z,140.93
2023-04-13T18:40:21.507Z,32.83
2023-04-13T18:43:08.888Z,34.73
2023-04-13T18:46:02.991Z,111.83
2023-04-13T18:55:20.320Z,30.33
2023-04-13T18:58:11.687Z,37.77
2023-04-13T19:03:45.499Z,19.73
2023-04-13T19:06:43.959Z,48.37
2023-04-13T19:09:57.927Z,53.80
2023-04-13T19:12:48.444Z,71.97
2023-04-13T19:15:26.568Z,30.37
2023-04-13T19:18:14.665Z,42.80
2023-04-13T19:20:52.731Z,65.20
2023-04-13T19:33:10.493Z,39.20
2023-04-13T19:36:17.943Z,20.43
2023-04-13T19:39:15.474Z,36.90
2023-04-13T19:42:11.652Z,22.10
2023-04-13T19:48:31.807Z,36.03
2023-04-13T19:51:29.560Z,20.97
2023-04-13T19:54:41.234Z,28.77
2023-04-13T20:00:46.144Z,31.30
2023-04-13T20:04:07.320Z,24.73
2023-04-13T20:07:08.825Z,22.83
2023-04-13T20:10:21.104Z,21.90
2023-04-13T20:13:35.091Z,31.23
2023-04-13T20:19:34.502Z,35.77
2023-04-13T20:22:17.577Z,25.90
2023-04-13T20:25:04.088Z,40.37
2023-04-13T20:27:48.402Z,31.47
2023-04-13T20:30:40.024Z,33.93
2023-04-13T20:33:35.031Z,32.97
2023-04-13T20:36:49.368Z,22.43
2023-04-13T20:40:19.824Z,29.90
2023-04-13T20:43:21.018Z,48.30
2023-04-13T20:46:13.678Z,27.43
2023-04-13T20:49:21.891Z,62.20
2023-04-13T20:55:55.394Z,60.17
2023-04-13T20:58:40.234Z,41.47
2023-04-13T21:01:52.623Z,35.10
2023-04-13T21:04:37.365Z,69.97
2023-04-13T21:10:38.265Z,42.47
2023-04-13T21:13:20.523Z,75.07
2023-04-13T21:16:00.678Z,57.50
2023-04-13T21:22:05.706Z,22.00
2023-04-13T21:27:54.769Z,132.37
2023-04-13T21:30:41.543Z,503.00
2023-04-13T21:33:42.140Z,33.73
2023-04-13T21:39:39.601Z,56.40
2023-04-13T21:42:15.080Z,55.13
2023-04-13T21:45:07.794Z,267.37
2023-04-13T21:47:56.011Z,133.97
2023-04-13T21:50:38.018Z,67.00
2023-04-13T21:56:31.168Z,74.30
2023-04-13T21:59:13.124Z,146.93
2023-04-13T22:01:58.526Z,260.20
2023-04-13T22:04:54.507Z,33.77
2023-04-13T22:07:42.382Z,75.97
2023-04-13T22:10:22.215Z,53.47
2023-04-13T22:13:33.102Z,374.57
2023-04-13T22:16:15.225Z,28.40
2023-04-13T22:19:10.381Z,553.83
2023-04-13T22:22:04.603Z,96.27
2023-04-13T22:28:24.328Z,48.13
2023-04-13T22:31:18.137Z,56.03
2023-04-13T22:34:18.613Z,38.43
2023-04-13T22:36:57.662Z,69.37
2023-04-13T22:40:00.966Z,37.07
2023-04-13T22:42:49.773Z,44.03
2023-04-13T22:45:46.398Z,33.70
2023-04-13T22:48:39.350Z,28.17
2023-04-13T22:51:28.463Z,52.70
2023-04-13T22:54:17.829Z,33.03
2023-04-13T22:56:56.436Z,92.00
2023-04-13T22:59:48.068Z,73.27
2023-04-13T23:05:27.327Z,52.30
2023-04-13T23:08:46.924Z,42.60
2023-04-13T23:11:49.455Z,204.13
2023-04-13T23:14:50.640Z,102.10
2023-04-13T23:17:56.207Z,263.53
2023-04-13T23:26:56.091Z,31.77
2023-04-13T23:30:12.208Z,24.83
2023-04-13T23:33:19.490Z,31.63
2023-04-13T23:36:36.578Z,38.60
2023-04-13T23:39:31.337Z,56.33
2023-04-13T23:42:59.413Z,71.33
2023-04-13T23:45:55.657Z,42.07
2023-04-13T23:48:58.003Z,71.30
2023-04-13T23:51:40.824Z,85.33
2023-04-13T23:54:19.980Z,44.87
2023-04-13T23:57:33.895Z,82.53
